Henniker, New Hampshire
Current Conditions -  °F | °C
As of 10:51 AM on Monday 24 Nov 2014 (Local Time) from KCON Reporting Station
Light Rain Light Rain  
Wind Chill: 59°   Ceiling: 1000
Heat Index: 59°   Visibility: 4mi
Dew Point: 58°   Wind: 10mph
Humidity: 96%   Direction: 160°SSE
Pressure: 29.64"   Gusts: NA
Location:  43.19°N, 71.82°W
Report Text: KCON 241551Z AUTO 16009KT 4SM -RA BR SCT006 OVC010 15/14 A2964 RMK AO2 SLP039 P0002 T01500144
Loading
Personal Weather Stations






























Interactive Weather Map New forecast layout! Learn more

10-Day Weather Forecast

Advertisements
Track Severe Weather on mobile